createdAt,value
2022-11-06T00:01:48.134Z,6.90
2022-11-06T00:04:15.831Z,7.60
2022-11-06T00:06:48.584Z,5.63
2022-11-06T00:09:18.220Z,5.03
2022-11-06T00:11:46.237Z,6.40
2022-11-06T00:14:14.187Z,5.17
2022-11-06T00:16:44.346Z,6.97
2022-11-06T00:19:12.876Z,6.20
2022-11-06T00:21:41.074Z,5.77
2022-11-06T00:24:09.726Z,5.00
2022-11-06T00:26:38.223Z,5.43
2022-11-06T00:29:06.915Z,5.00
2022-11-06T00:31:37.227Z,4.80
2022-11-06T00:34:07.700Z,4.20
2022-11-06T00:36:36.876Z,4.53
2022-11-06T00:39:04.931Z,4.10
2022-11-06T00:41:33.136Z,4.13
2022-11-06T00:44:02.966Z,3.73
2022-11-06T00:46:31.811Z,4.57
2022-11-06T00:48:59.525Z,5.43
2022-11-06T00:51:31.337Z,4.80
2022-11-06T00:54:00.635Z,5.47
2022-11-06T00:56:29.092Z,6.50
2022-11-06T00:58:57.109Z,4.90
2022-11-06T01:01:27.659Z,4.50
2022-11-06T01:03:57.955Z,4.27
2022-11-06T01:06:29.985Z,4.57
2022-11-06T01:08:58.110Z,3.60
2022-11-06T01:11:29.490Z,6.67
2022-11-06T01:14:04.310Z,3.57
2022-11-06T01:16:33.220Z,2.37
2022-11-06T01:19:00.911Z,2.40
2022-11-06T01:21:31.909Z,3.07
2022-11-06T01:24:01.575Z,3.60
2022-11-06T01:26:38.451Z,2.33
2022-11-06T01:29:11.691Z,2.80
2022-11-06T01:31:39.846Z,2.10
2022-11-06T01:34:07.650Z,2.30
2022-11-06T01:36:37.010Z,1.87
2022-11-06T01:39:07.729Z,2.67
2022-11-06T01:41:37.863Z,2.10
2022-11-06T01:44:09.764Z,2.47
2022-11-06T01:46:38.081Z,2.00
2022-11-06T01:49:09.238Z,1.63
2022-11-06T01:51:43.439Z,1.93
2022-11-06T01:54:12.962Z,1.50
2022-11-06T01:56:42.688Z,1.83
2022-11-06T01:59:16.251Z,2.17
2022-11-06T02:01:44.517Z,1.50
2022-11-06T02:04:17.165Z,2.67
2022-11-06T02:06:48.296Z,1.97
2022-11-06T02:09:17.057Z,2.90
2022-11-06T02:11:48.016Z,1.90
2022-11-06T02:14:25.828Z,1.73
2022-11-06T02:16:57.440Z,1.50
2022-11-06T02:19:39.936Z,2.00
2022-11-06T02:22:24.899Z,2.33
2022-11-06T02:25:07.926Z,1.50
2022-11-06T02:27:37.924Z,2.37
2022-11-06T02:30:07.719Z,2.00
2022-11-06T02:32:41.426Z,3.07
2022-11-06T02:35:19.377Z,2.07
2022-11-06T02:37:48.735Z,2.50
2022-11-06T02:40:18.161Z,2.70
2022-11-06T02:42:52.846Z,2.80
2022-11-06T02:45:23.029Z,1.57
2022-11-06T02:47:54.894Z,3.37
2022-11-06T02:50:26.793Z,1.60
2022-11-06T02:52:58.813Z,1.83
2022-11-06T02:55:31.335Z,2.37
2022-11-06T02:58:06.688Z,1.70
2022-11-06T03:00:37.230Z,2.73
2022-11-06T03:03:08.005Z,2.77
2022-11-06T03:05:40.159Z,1.80
2022-11-06T03:08:15.497Z,1.93
2022-11-06T03:10:53.208Z,2.13
2022-11-06T03:13:28.587Z,2.00
2022-11-06T03:16:04.957Z,2.07
2022-11-06T03:18:40.564Z,1.33
2022-11-06T03:21:16.865Z,1.40
2022-11-06T03:23:50.065Z,3.07
2022-11-06T03:26:22.992Z,1.80
2022-11-06T03:28:55.253Z,1.93
2022-11-06T03:31:29.311Z,1.10
2022-11-06T03:34:02.759Z,1.57
2022-11-06T03:36:35.232Z,1.63
2022-11-06T03:39:06.329Z,1.70
2022-11-06T03:41:39.805Z,3.57
2022-11-06T03:44:13.677Z,2.13
2022-11-06T03:46:48.321Z,1.97
2022-11-06T03:49:21.817Z,1.83
2022-11-06T03:51:55.881Z,2.03
2022-11-06T03:54:27.622Z,1.27
2022-11-06T03:57:01.666Z,2.37
2022-11-06T03:59:35.581Z,1.70
2022-11-06T04:02:05.095Z,1.80
2022-11-06T04:04:39.513Z,1.53
2022-11-06T04:07:10.996Z,1.43
2022-11-06T04:09:59.182Z,1.13
2022-11-06T04:12:49.049Z,2.00
2022-11-06T04:15:20.504Z,2.93
2022-11-06T04:17:48.507Z,2.87
2022-11-06T04:20:34.435Z,10.97
2022-11-06T04:23:10.324Z,8.57
2022-11-06T04:26:15.379Z,4.17
2022-11-06T04:28:52.848Z,2.00
2022-11-06T04:31:28.373Z,2.23
2022-11-06T04:34:02.039Z,1.57
2022-11-06T04:36:35.922Z,1.83
2022-11-06T04:39:10.979Z,3.10
2022-11-06T04:41:43.707Z,3.57
2022-11-06T04:44:16.288Z,3.03
2022-11-06T04:46:50.279Z,2.70
2022-11-06T04:49:19.552Z,3.37
2022-11-06T04:51:48.850Z,2.13
2022-11-06T04:54:17.318Z,2.10
2022-11-06T04:56:46.512Z,4.40
2022-11-06T04:59:17.927Z,2.83
2022-11-06T05:01:47.506Z,3.30
2022-11-06T05:04:15.368Z,2.87
2022-11-06T05:06:43.078Z,2.63
2022-11-06T05:09:10.796Z,3.13
2022-11-06T05:11:39.007Z,2.33
2022-11-06T05:14:06.711Z,2.30
2022-11-06T05:16:34.674Z,2.50
2022-11-06T05:19:04.042Z,3.63
2022-11-06T05:21:49.781Z,2.87
2022-11-06T05:24:17.650Z,3.30
2022-11-06T05:26:45.361Z,2.73
2022-11-06T05:29:13.647Z,2.63
2022-11-06T05:31:41.628Z,1.77
2022-11-06T05:34:10.843Z,1.60
2022-11-06T05:36:39.189Z,2.23
2022-11-06T05:39:06.911Z,2.00
2022-11-06T05:41:34.747Z,2.97
2022-11-06T05:44:02.582Z,1.90
2022-11-06T05:46:49.223Z,2.67
2022-11-06T05:49:19.297Z,2.07
2022-11-06T05:51:47.492Z,3.87
2022-11-06T05:54:15.614Z,2.13
2022-11-06T05:56:43.982Z,2.03
2022-11-06T05:59:11.880Z,2.70
2022-11-06T06:01:39.998Z,2.10
2022-11-06T06:04:07.714Z,1.50
2022-11-06T06:06:37.840Z,1.17
2022-11-06T06:09:05.793Z,2.07
2022-11-06T06:11:34.667Z,2.80
2022-11-06T06:14:02.362Z,1.47
2022-11-06T06:16:30.817Z,1.40
2022-11-06T06:18:58.496Z,1.67
2022-11-06T06:21:26.189Z,1.53
2022-11-06T06:23:55.453Z,3.23
2022-11-06T06:26:23.462Z,1.83
2022-11-06T06:28:51.107Z,1.63
2022-11-06T06:31:19.108Z,1.57
2022-11-06T06:33:46.932Z,1.77
2022-11-06T06:36:15.015Z,1.27
2022-11-06T06:38:42.718Z,2.00
2022-11-06T06:41:12.267Z,1.57
2022-11-06T06:43:39.922Z,1.47
2022-11-06T06:46:08.314Z,1.40
2022-11-06T06:48:36.655Z,1.83
2022-11-06T06:51:07.752Z,1.83
2022-11-06T06:53:36.310Z,1.47
2022-11-06T06:56:05.288Z,1.40
2022-11-06T06:58:34.393Z,0.93
2022-11-06T07:01:03.509Z,1.10
2022-11-06T07:03:32.116Z,2.17
2022-11-06T07:06:00.328Z,2.17
2022-11-06T07:08:28.695Z,2.43
2022-11-06T07:11:00.183Z,2.47
2022-11-06T07:13:32.781Z,1.60
2022-11-06T07:16:06.068Z,1.63
2022-11-06T07:18:33.803Z,1.10
2022-11-06T07:21:02.495Z,1.97
2022-11-06T07:23:30.153Z,2.07
2022-11-06T07:25:58.104Z,3.13
2022-11-06T07:28:25.829Z,2.57
2022-11-06T07:30:53.975Z,2.30
2022-11-06T07:33:22.987Z,1.47
2022-11-06T07:35:50.677Z,1.83
2022-11-06T07:38:18.336Z,3.20
2022-11-06T07:40:46.182Z,11.30
2022-11-06T07:43:13.933Z,5.53
2022-11-06T07:45:41.949Z,3.23
2022-11-06T07:48:09.666Z,3.40
2022-11-06T07:50:38.984Z,3.10
2022-11-06T07:53:06.819Z,3.03
2022-11-06T07:55:37.834Z,2.37
2022-11-06T07:58:09.563Z,1.40
2022-11-06T08:00:37.588Z,2.77
2022-11-06T08:03:05.268Z,2.30
2022-11-06T08:05:33.244Z,1.67
2022-11-06T08:08:02.283Z,3.57
2022-11-06T08:10:29.980Z,1.87
2022-11-06T08:13:00.079Z,1.10
2022-11-06T08:15:27.795Z,1.07
2022-11-06T08:17:55.488Z,1.27
2022-11-06T08:20:23.140Z,1.53
2022-11-06T08:22:50.826Z,1.90
2022-11-06T08:25:19.960Z,1.40
2022-11-06T08:27:47.620Z,1.90
2022-11-06T08:30:15.332Z,1.33
2022-11-06T08:32:43.009Z,1.40
2022-11-06T08:35:10.821Z,1.57
2022-11-06T08:37:38.483Z,1.30
2022-11-06T08:40:07.309Z,1.60
2022-11-06T08:42:36.640Z,1.23
2022-11-06T08:45:04.960Z,1.90
2022-11-06T08:47:32.636Z,1.60
2022-11-06T08:50:00.353Z,1.90
2022-11-06T08:52:33.684Z,1.90
2022-11-06T08:55:01.831Z,1.60
2022-11-06T08:57:29.757Z,2.10
2022-11-06T08:59:58.813Z,1.50
2022-11-06T09:02:26.803Z,1.30
2022-11-06T09:04:54.548Z,2.27
2022-11-06T09:07:22.590Z,2.10
2022-11-06T09:09:50.236Z,1.50
2022-11-06T09:12:18.271Z,1.37
2022-11-06T09:14:45.940Z,2.10
2022-11-06T09:17:15.354Z,2.23
2022-11-06T09:19:43.325Z,1.57
2022-11-06T09:22:11.782Z,2.10
2022-11-06T09:25:01.994Z,1.87
2022-11-06T09:27:27.717Z,1.70
2022-11-06T09:29:55.450Z,2.03
2022-11-06T09:32:24.997Z,2.60
2022-11-06T09:34:53.066Z,2.07
2022-11-06T09:37:21.502Z,2.77
2022-11-06T09:39:49.171Z,2.37
2022-11-06T09:42:26.874Z,2.27
2022-11-06T09:45:04.142Z,2.73
2022-11-06T09:47:36.912Z,2.50
2022-11-06T09:50:07.927Z,2.77
2022-11-06T09:52:42.100Z,2.23
2022-11-06T09:55:16.206Z,3.53
2022-11-06T09:57:48.703Z,2.63
2022-11-06T10:00:18.656Z,3.43
2022-11-06T10:02:51.645Z,3.83
2022-11-06T10:05:26.564Z,3.60
2022-11-06T10:07:57.665Z,3.53
2022-11-06T10:10:31.363Z,3.73
2022-11-06T10:13:17.459Z,2.97
2022-11-06T10:15:54.215Z,3.97
2022-11-06T10:18:35.268Z,3.23
2022-11-06T10:21:11.888Z,3.07
2022-11-06T10:23:49.000Z,3.70
2022-11-06T10:26:19.466Z,4.73
2022-11-06T10:29:22.986Z,3.70
2022-11-06T10:32:05.905Z,3.37
2022-11-06T10:34:40.488Z,2.57
2022-11-06T10:37:14.360Z,3.07
2022-11-06T10:39:42.735Z,3.23
2022-11-06T10:42:17.007Z,3.33
2022-11-06T10:44:49.830Z,2.63
2022-11-06T10:47:21.610Z,2.53
2022-11-06T10:49:54.352Z,3.73
2022-11-06T10:52:37.687Z,3.77
2022-11-06T10:55:41.189Z,2.57
2022-11-06T10:58:11.212Z,3.43
2022-11-06T11:00:39.847Z,2.50
2022-11-06T11:03:17.608Z,3.20
2022-11-06T11:05:47.121Z,2.93
2022-11-06T11:08:37.625Z,2.43
2022-11-06T11:11:08.400Z,2.17
2022-11-06T11:13:36.041Z,1.90
2022-11-06T11:16:05.348Z,2.10
2022-11-06T11:18:34.148Z,2.23
2022-11-06T11:21:23.832Z,2.33
2022-11-06T11:24:07.239Z,2.17
2022-11-06T11:26:39.777Z,1.90
2022-11-06T11:29:15.060Z,1.43
2022-11-06T11:31:48.849Z,2.10
2022-11-06T11:34:20.677Z,1.17
2022-11-06T11:36:54.108Z,1.50
2022-11-06T11:39:25.142Z,1.50
2022-11-06T11:41:53.289Z,1.63
2022-11-06T11:44:21.509Z,1.53
2022-11-06T11:46:51.756Z,0.70
2022-11-06T11:49:30.629Z,1.13
2022-11-06T11:52:02.538Z,1.03
2022-11-06T11:54:33.245Z,0.93
2022-11-06T11:57:05.679Z,1.40
2022-11-06T11:59:42.513Z,0.83
2022-11-06T12:02:20.937Z,1.73
2022-11-06T12:04:55.331Z,0.90
2022-11-06T12:07:29.191Z,0.87
2022-11-06T12:09:57.133Z,0.67
2022-11-06T12:12:29.437Z,0.60
2022-11-06T12:15:19.225Z,0.70
2022-11-06T12:17:53.539Z,1.20
2022-11-06T12:20:27.301Z,1.03
2022-11-06T12:22:59.186Z,1.33
2022-11-06T12:25:32.118Z,1.00
2022-11-06T12:28:02.910Z,1.70
2022-11-06T12:30:34.359Z,2.07
2022-11-06T12:33:07.306Z,2.03
2022-11-06T12:35:39.461Z,3.50
2022-11-06T12:38:16.754Z,3.07
2022-11-06T12:40:50.667Z,3.10
2022-11-06T12:43:23.412Z,2.60
2022-11-06T12:46:08.692Z,4.60
2022-11-06T12:48:51.303Z,3.23
2022-11-06T12:51:31.449Z,3.60
2022-11-06T12:54:21.528Z,3.43
2022-11-06T12:56:58.391Z,2.47
2022-11-06T12:59:38.464Z,3.07
2022-11-06T13:02:24.362Z,3.77
2022-11-06T13:04:56.811Z,3.00
2022-11-06T13:07:58.121Z,3.60
2022-11-06T13:10:39.552Z,2.83
2022-11-06T13:13:23.623Z,3.53
2022-11-06T13:16:00.084Z,4.10
2022-11-06T13:18:32.504Z,2.97
2022-11-06T13:21:05.981Z,3.47
2022-11-06T13:23:39.356Z,2.07
2022-11-06T13:26:17.581Z,2.33
2022-11-06T13:28:49.760Z,2.57
2022-11-06T13:31:21.572Z,2.10
2022-11-06T13:33:53.260Z,2.20
2022-11-06T13:36:22.415Z,1.70
2022-11-06T13:38:55.030Z,1.40
2022-11-06T13:41:28.196Z,1.60
2022-11-06T13:44:00.070Z,1.90
2022-11-06T13:46:38.456Z,1.70
2022-11-06T13:49:18.726Z,1.30
2022-11-06T13:51:52.725Z,1.60
2022-11-06T13:54:30.332Z,0.90
2022-11-06T13:57:28.395Z,0.60
2022-11-06T14:00:11.460Z,1.67
2022-11-06T14:03:05.760Z,1.37
2022-11-06T14:05:59.175Z,1.10
2022-11-06T14:08:30.971Z,1.50
2022-11-06T14:11:02.210Z,1.87
2022-11-06T14:13:34.574Z,1.60
2022-11-06T14:16:28.782Z,1.20
2022-11-06T14:18:59.081Z,1.27
2022-11-06T14:21:44.022Z,1.00
2022-11-06T14:24:34.066Z,0.50
2022-11-06T14:27:03.812Z,0.97
2022-11-06T14:29:58.201Z,1.27
2022-11-06T14:32:41.348Z,1.33
2022-11-06T14:35:51.911Z,0.30
2022-11-06T14:38:34.917Z,0.60
2022-11-06T14:41:24.128Z,1.00
2022-11-06T14:43:54.712Z,0.50
2022-11-06T14:46:25.089Z,1.60
2022-11-06T14:48:55.659Z,0.90
2022-11-06T14:51:28.055Z,0.80
2022-11-06T14:53:59.357Z,0.53
2022-11-06T14:56:30.169Z,0.83
2022-11-06T14:59:00.175Z,0.80
2022-11-06T15:01:32.476Z,1.80
2022-11-06T15:04:04.117Z,1.37
2022-11-06T15:06:41.170Z,1.00
2022-11-06T15:09:13.479Z,1.40
2022-11-06T15:11:54.065Z,0.80
2022-11-06T15:14:57.179Z,0.57
2022-11-06T15:17:28.712Z,0.50
2022-11-06T15:20:02.595Z,0.60
2022-11-06T15:22:36.915Z,0.53
2022-11-06T15:25:19.589Z,0.50
2022-11-06T15:27:53.211Z,0.90
2022-11-06T15:30:21.936Z,1.10
2022-11-06T15:32:54.515Z,0.50
2022-11-06T15:35:25.779Z,0.40
2022-11-06T15:37:56.947Z,0.87
2022-11-06T15:40:29.339Z,0.83
2022-11-06T15:43:01.123Z,0.77
2022-11-06T15:45:30.748Z,0.60
2022-11-06T15:48:01.595Z,0.67
2022-11-06T15:50:30.963Z,0.70
2022-11-06T15:53:18.040Z,1.23
2022-11-06T15:55:52.259Z,1.03
2022-11-06T15:58:31.763Z,1.20
2022-11-06T16:01:01.117Z,1.63
2022-11-06T16:03:33.124Z,1.40
2022-11-06T16:06:03.933Z,1.33
2022-11-06T16:08:33.436Z,1.43
2022-11-06T16:11:02.796Z,0.63
2022-11-06T16:13:31.412Z,1.47
2022-11-06T16:16:01.780Z,1.13
2022-11-06T16:18:34.405Z,1.00
2022-11-06T16:21:10.089Z,0.73
2022-11-06T16:23:40.402Z,1.13
2022-11-06T16:26:10.264Z,1.30
2022-11-06T16:28:44.062Z,0.63
2022-11-06T16:31:16.322Z,0.87
2022-11-06T16:33:56.225Z,0.80
2022-11-06T16:36:25.208Z,1.00
2022-11-06T16:38:53.409Z,0.83
2022-11-06T16:41:40.653Z,0.70
2022-11-06T16:44:27.874Z,1.07
2022-11-06T16:47:23.328Z,0.80
2022-11-06T16:49:54.644Z,1.23
2022-11-06T16:52:27.303Z,1.90
2022-11-06T16:54:58.279Z,2.40
2022-11-06T16:57:28.872Z,4.23
2022-11-06T16:59:59.645Z,2.13
2022-11-06T17:02:30.433Z,1.63
2022-11-06T17:05:14.169Z,2.93
2022-11-06T17:07:42.467Z,5.60
2022-11-06T17:10:27.201Z,10.70
2022-11-06T17:12:54.862Z,9.93
2022-11-06T17:15:22.533Z,3.27
2022-11-06T17:17:51.413Z,1.53
2022-11-06T17:20:20.655Z,1.30
2022-11-06T17:22:49.957Z,1.10
2022-11-06T17:25:17.677Z,1.03
2022-11-06T17:27:45.375Z,0.90
2022-11-06T17:30:14.672Z,1.37
2022-11-06T17:32:42.671Z,1.47
2022-11-06T17:35:10.562Z,1.30
2022-11-06T17:37:39.607Z,2.03
2022-11-06T17:40:08.150Z,2.57
2022-11-06T17:42:36.860Z,1.97
2022-11-06T17:45:04.802Z,3.00
2022-11-06T17:47:32.451Z,3.17
2022-11-06T17:50:00.279Z,3.00
2022-11-06T17:52:27.988Z,2.20
2022-11-06T17:54:57.379Z,2.07
2022-11-06T17:57:25.436Z,1.33
2022-11-06T17:59:53.144Z,1.50
2022-11-06T18:02:40.736Z,1.47
2022-11-06T18:05:09.261Z,2.33
2022-11-06T18:07:36.896Z,1.97
2022-11-06T18:10:06.672Z,1.60
2022-11-06T18:12:34.730Z,1.83
2022-11-06T18:15:02.376Z,2.57
2022-11-06T18:17:30.346Z,2.47
2022-11-06T18:19:57.977Z,2.20
2022-11-06T18:22:25.952Z,2.50
2022-11-06T18:24:53.892Z,1.93
2022-11-06T18:27:23.218Z,2.93
2022-11-06T18:29:50.869Z,2.43
2022-11-06T18:32:18.587Z,2.90
2022-11-06T18:34:46.238Z,1.93
2022-11-06T18:37:13.876Z,2.47
2022-11-06T18:39:41.529Z,1.93
2022-11-06T18:42:12.107Z,2.60
2022-11-06T18:44:41.929Z,2.43
2022-11-06T18:47:09.637Z,2.43
2022-11-06T18:49:37.358Z,2.43
2022-11-06T18:52:05.416Z,2.33
2022-11-06T18:54:33.066Z,1.93
2022-11-06T18:57:01.081Z,1.83
2022-11-06T18:59:29.275Z,1.93
2022-11-06T19:01:58.534Z,3.27
2022-11-06T19:04:27.841Z,2.70
2022-11-06T19:06:56.274Z,3.20
2022-11-06T19:09:23.953Z,2.83
2022-11-06T19:11:51.615Z,3.13
2022-11-06T19:14:19.293Z,1.90
2022-11-06T19:16:47.316Z,2.23
2022-11-06T19:19:25.123Z,2.53
2022-11-06T19:21:54.211Z,2.17
2022-11-06T19:24:22.069Z,1.80
2022-11-06T19:26:50.289Z,2.60
2022-11-06T19:29:18.051Z,2.47
2022-11-06T19:31:45.712Z,2.83
2022-11-06T19:34:14.443Z,2.70
2022-11-06T19:36:43.808Z,2.53
2022-11-06T19:39:11.575Z,2.20
2022-11-06T19:41:41.669Z,2.37
2022-11-06T19:44:10.051Z,2.33
2022-11-06T19:46:37.766Z,2.50
2022-11-06T19:49:06.748Z,4.43
2022-11-06T19:51:37.440Z,1.97
2022-11-06T19:54:07.561Z,1.63
2022-11-06T19:56:35.376Z,1.40
2022-11-06T19:59:03.047Z,1.43
2022-11-06T20:01:33.783Z,1.77
2022-11-06T20:04:01.739Z,1.50
2022-11-06T20:06:29.487Z,1.23
2022-11-06T20:08:57.168Z,1.17
2022-11-06T20:11:26.163Z,1.70
2022-11-06T20:13:53.809Z,1.50
2022-11-06T20:16:22.262Z,0.90
2022-11-06T20:18:53.743Z,1.40
2022-11-06T20:21:21.980Z,1.13
2022-11-06T20:23:50.190Z,0.70
2022-11-06T20:26:18.191Z,2.90
2022-11-06T20:28:48.411Z,1.23
2022-11-06T20:31:20.080Z,0.77
2022-11-06T20:33:48.366Z,0.90
2022-11-06T20:36:19.644Z,1.53
2022-11-06T20:38:47.900Z,1.00
2022-11-06T20:41:16.036Z,0.60
2022-11-06T20:43:44.373Z,1.53
2022-11-06T20:46:15.391Z,0.73
2022-11-06T20:48:44.853Z,0.60
2022-11-06T20:51:14.757Z,1.33
2022-11-06T20:53:42.789Z,0.77
2022-11-06T20:56:13.666Z,0.60
2022-11-06T20:58:41.565Z,1.23
2022-11-06T21:01:11.803Z,1.17
2022-11-06T21:03:41.629Z,0.97
2022-11-06T21:06:10.583Z,1.10
2022-11-06T21:08:39.944Z,0.90
2022-11-06T21:11:11.853Z,0.70
2022-11-06T21:13:40.637Z,1.23
2022-11-06T21:16:12.676Z,0.97
2022-11-06T21:18:42.444Z,0.67
2022-11-06T21:21:12.453Z,0.70
2022-11-06T21:23:40.698Z,0.90
2022-11-06T21:26:10.806Z,0.93
2022-11-06T21:28:39.715Z,0.90
2022-11-06T21:31:10.398Z,0.47
2022-11-06T21:33:41.909Z,0.87
2022-11-06T21:36:12.385Z,0.63
2022-11-06T21:38:40.499Z,0.80
2022-11-06T21:41:10.638Z,0.67
2022-11-06T21:43:38.372Z,0.80
2022-11-06T21:46:08.844Z,0.73
2022-11-06T21:48:52.427Z,0.73
2022-11-06T21:51:24.861Z,1.30
2022-11-06T21:54:10.401Z,0.83
2022-11-06T21:56:39.859Z,0.77
2022-11-06T21:59:09.481Z,0.57
2022-11-06T22:01:38.480Z,1.10
2022-11-06T22:04:07.017Z,0.53
2022-11-06T22:06:36.322Z,0.60
2022-11-06T22:09:04.699Z,1.00
2022-11-06T22:11:34.451Z,0.57
2022-11-06T22:14:04.074Z,0.90
2022-11-06T22:16:34.656Z,0.77
2022-11-06T22:19:02.944Z,0.73
2022-11-06T22:21:31.819Z,0.87
2022-11-06T22:24:00.914Z,0.73
2022-11-06T22:26:30.362Z,1.17
2022-11-06T22:29:00.285Z,1.00
2022-11-06T22:31:29.271Z,0.70
2022-11-06T22:33:57.708Z,0.50
2022-11-06T22:36:26.882Z,0.83
2022-11-06T22:38:54.698Z,0.80
2022-11-06T22:41:25.627Z,0.77
2022-11-06T22:43:58.007Z,0.93
2022-11-06T22:46:26.097Z,0.57
2022-11-06T22:48:54.197Z,0.50
2022-11-06T22:51:24.448Z,0.40
2022-11-06T22:53:52.812Z,1.20
2022-11-06T22:56:24.036Z,0.70
2022-11-06T22:58:54.428Z,0.73
2022-11-06T23:01:23.738Z,0.57
2022-11-06T23:03:56.356Z,0.90
2022-11-06T23:06:25.600Z,0.40
2022-11-06T23:08:53.881Z,0.60
2022-11-06T23:11:25.193Z,0.60
2022-11-06T23:13:53.979Z,0.50
2022-11-06T23:16:44.516Z,0.50
2022-11-06T23:19:14.572Z,0.77
2022-11-06T23:21:43.096Z,0.40
2022-11-06T23:24:11.019Z,0.60
2022-11-06T23:26:41.414Z,0.40
2022-11-06T23:29:09.350Z,0.50
2022-11-06T23:31:37.304Z,0.50
2022-11-06T23:34:05.002Z,0.43
2022-11-06T23:36:33.167Z,1.10
2022-11-06T23:39:00.792Z,0.50
2022-11-06T23:41:46.778Z,0.60
2022-11-06T23:44:34.345Z,0.63
2022-11-06T23:47:02.875Z,0.53
2022-11-06T23:49:30.644Z,1.07
2022-11-06T23:51:59.145Z,0.70
2022-11-06T23:54:26.962Z,0.33
2022-11-06T23:56:55.119Z,0.73
2022-11-06T23:59:24.284Z,0.30
